Search for airport 
image banner adimage banner adimage banner ad
image banner ad

12CL - Newton Field

Located in Stratford, United States

ICAO - 12CL, IATA -

Data provided by Airmate  

General information

Coordinates: N36°9'25" W119°50'58"
Elevation is 194 feet MSL.
Magnetic variation is 15° East
View others Airports in California

Operational data

Special qualification required
Current time UTC:
Current local time:
Weather at : KNLC - Lemoore Nas (Reeves Fld) ( 22 km )
METAR: KNLC 141056Z AUTO 33012KT 10SM CLR 19/12 A2995 RMK AO2 SLP141 T01940122
TAF: TAF COR KNLC 1407/1507 32018G28KT 9999 SKC 520005 QNH2984INS TEMPO 1407/1413 32012KT FM141300 33009KT 9999 FEW250 500000 QNH2994INS FM150000 34012KT 9999 FEW250 QNH2987INS FM150500 33015G20KT 9999 SKC QNH2989INS LAST NO AMDS AFT 1407 NEXT 1415 T18/1413Z T37/1422Z COR 0726 FS30167
View NOTAMs / SUP AIP / TFR affecting this airport [VIEW]
Communications frequencies: [VIEW]

Runways:

RWY identifierQFULength (ft)Width (ft)SurfaceLDA (ft)
14279040ASPH
32279040ASPH

Airport contact information

Address: Stratford United States

Satellite view of 12CL